Home   Weather   USA   Lexington   Past weeks
Flag for USA

Past Weather in Lexington, North Carolina, USA — Yesterday and Last 2 Weeks

Currently: 78 °F. Partly sunny. (Weather station: Davidson County Airport, USA). See more current weather

Past Weather in Lexington — Graph

°F

Lexington Temperature Yesterday

Maximum temperature yesterday: 78 °F (at 4:55 pm)
Minimum temperature yesterday: 64 °F (at 11:55 pm)
Average temperature yesterday: 73 °F

High & Low Weather Summary for the Past Weeks

 TemperatureHumidityPressure
High92 °F (Jun 21, 3:35 pm)100% (Jun 9, 10:15 pm)30.35 "Hg (Jun 9, 10:15 pm)
Low53 °F (Jun 17, 5:55 am)26% (Jun 17, 4:15 pm)29.74 "Hg (Jun 11, 5:35 pm)
Average74 °F76%29.96 "Hg
* Reported Jun 9 5:15 pm — Jun 24 5:55 pm, Lexington. Weather by CustomWeather, © 2021

Note: Actual official high and low records may vary slightly from our data, if they occured in-between our weather recording intervals... More about our weather records

Lexington Weather History for the Previous 24 Hours

Scroll right to see more
 ConditionsComfort  
Time TempWeatherWind HumidityBarometerVisibility
5:55 pm
Thu, Jun 24
78 °FPartly sunny.8 mph46%30.25 "Hg10 mi
5:35 pm78 °FScattered clouds.7 mph46%30.25 "Hg10 mi
5:15 pm76 °FScattered clouds.No wind51%30.25 "Hg10 mi
4:55 pm78 °FPartly sunny.8 mph47%30.25 "Hg10 mi
4:35 pm78 °FPartly sunny.8 mph47%30.25 "Hg10 mi
4:15 pm77 °FScattered clouds.6 mph48%30.26 "Hg10 mi
3:55 pm77 °FScattered clouds.No wind47%30.26 "Hg10 mi
3:35 pm76 °FPartly sunny.7 mph50%30.27 "Hg10 mi
3:15 pm75 °FPartly sunny.5 mph52%30.27 "Hg10 mi
2:55 pm76 °FPartly sunny.3 mph51%30.27 "Hg10 mi
2:15 pm75 °FPartly sunny.6 mph52%30.30 "Hg10 mi
1:55 pm75 °FScattered clouds.5 mph53%30.31 "Hg10 mi
1:35 pm75 °FSunny.No wind52%30.31 "Hg10 mi
1:15 pm75 °FSunny.8 mph53%30.31 "Hg10 mi
12:55 pm73 °FSunny.7 mph56%30.33 "Hg10 mi
12:35 pm73 °FScattered clouds.9 mph55%30.33 "Hg10 mi
11:55 am73 °FScattered clouds.8 mph54%30.35 "Hg10 mi
11:35 am72 °FScattered clouds.3 mph55%30.35 "Hg10 mi
11:15 am72 °FSunny.7 mph55%30.35 "Hg10 mi
10:55 am71 °FSunny.No wind58%30.35 "Hg10 mi
10:35 am71 °FScattered clouds.3 mph60%30.35 "Hg10 mi
10:15 am70 °FScattered clouds.7 mph62%30.35 "Hg10 mi
9:55 am68 °FSunny.6 mph65%30.34 "Hg10 mi
9:35 am68 °FScattered clouds.7 mph64%30.33 "Hg10 mi
9:15 am68 °FPartly sunny.9 mph65%30.34 "Hg10 mi
8:55 am65 °FMore clouds than sun.No wind81%30.34 "Hg10 mi
8:35 am64 °FBroken clouds.No wind85%30.34 "Hg10 mi
8:15 am63 °FBroken clouds.5 mph90%30.33 "Hg10 mi
7:55 am62 °FBroken clouds.No wind100%30.33 "Hg10 mi
7:35 am61 °FMore clouds than sun.No wind100%30.33 "Hg10 mi
7:15 am60 °FMore clouds than sun.No wind100%30.32 "Hg10 mi
6:55 am60 °FBroken clouds.3 mph100%30.31 "Hg10 mi
6:35 am59 °FBroken clouds.No wind100%30.31 "Hg10 mi
6:15 am59 °FPartly sunny.No wind100%30.29 "Hg10 mi
5:55 am58 °FPassing clouds.No wind100%30.28 "Hg10 mi
5:35 am59 °FPassing clouds.No wind100%30.28 "Hg10 mi
5:15 am59 °FPassing clouds.No wind100%30.27 "Hg10 mi
4:55 am59 °FClear.3 mph100%30.27 "Hg10 mi
4:35 am60 °FClear.No wind100%30.26 "Hg10 mi
4:15 am60 °FPassing clouds.No wind100%30.26 "Hg10 mi
3:55 am60 °FPassing clouds.No wind100%30.26 "Hg10 mi
3:35 am60 °FClear.No wind100%30.26 "Hg10 mi
3:15 am61 °FClear.No wind100%30.26 "Hg10 mi
2:55 am61 °FClear.No wind100%30.26 "Hg10 mi
2:15 am62 °FClear.No wind100%30.27 "Hg10 mi
1:55 am62 °FClear.No wind99%30.27 "Hg10 mi
1:35 am63 °FClear.No wind99%30.27 "Hg10 mi
1:15 am63 °FClear.No wind100%30.27 "Hg10 mi
12:55 am63 °FClear.No wind100%30.27 "Hg10 mi
12:35 am64 °FClear.No wind95%30.28 "Hg10 mi
12:15 am64 °FClear.3 mph96%30.27 "Hg10 mi
11:55 pm
Wed, Jun 23
64 °FClear.No wind94%30.27 "Hg10 mi
11:35 pm64 °FClear.No wind94%30.27 "Hg10 mi
11:15 pm64 °FClear.No wind93%30.26 "Hg10 mi
10:55 pm65 °FClear.No wind89%30.26 "Hg10 mi
10:35 pm65 °FClear.No wind85%30.26 "Hg10 mi
9:55 pm67 °FClear.No wind78%30.24 "Hg10 mi
9:35 pm68 °FClear.No wind74%30.23 "Hg10 mi
9:15 pm68 °FClear.No wind73%30.23 "Hg10 mi
8:55 pm69 °FClear.No wind68%30.23 "Hg10 mi
7:55 pm74 °FSunny.5 mph55%30.21 "Hg10 mi
7:35 pm76 °FSunny.8 mph53%30.21 "Hg10 mi
7:15 pm76 °FSunny.6 mph51%30.20 "Hg10 mi
Weather by CustomWeather, © 2021

See weather overview